sensor_id;sensor_type;location;lat;lon;timestamp;P1;durP1;ratioP1;P2;durP2;ratioP2
20671;SDS011;10495;50.922;4.760;2022-08-11T00:00:10;5.72;;;4.03;;
20671;SDS011;10495;50.922;4.760;2022-08-11T00:02:38;4.22;;;3.60;;
20671;SDS011;10495;50.922;4.760;2022-08-11T00:05:07;6.37;;;3.50;;
20671;SDS011;10495;50.922;4.760;2022-08-11T00:07:41;4.55;;;3.63;;
20671;SDS011;10495;50.922;4.760;2022-08-11T00:10:14;4.85;;;3.17;;
20671;SDS011;10495;50.922;4.760;2022-08-11T00:12:42;4.28;;;3.28;;
20671;SDS011;10495;50.922;4.760;2022-08-11T00:15:09;3.70;;;3.40;;
20671;SDS011;10495;50.922;4.760;2022-08-11T00:17:35;3.30;;;3.00;;
20671;SDS011;10495;50.922;4.760;2022-08-11T00:20:04;3.83;;;3.53;;
20671;SDS011;10495;50.922;4.760;2022-08-11T00:22:35;3.88;;;3.47;;
20671;SDS011;10495;50.922;4.760;2022-08-11T00:25:10;4.55;;;3.35;;
20671;SDS011;10495;50.922;4.760;2022-08-11T00:27:43;3.65;;;3.35;;
20671;SDS011;10495;50.922;4.760;2022-08-11T00:30:11;4.45;;;3.17;;
20671;SDS011;10495;50.922;4.760;2022-08-11T00:32:38;4.05;;;3.20;;
20671;SDS011;10495;50.922;4.760;2022-08-11T00:35:06;3.95;;;3.55;;
20671;SDS011;10495;50.922;4.760;2022-08-11T00:37:35;3.22;;;2.92;;
20671;SDS011;10495;50.922;4.760;2022-08-11T00:40:03;3.80;;;3.40;;
20671;SDS011;10495;50.922;4.760;2022-08-11T00:45:22;4.60;;;3.50;;
20671;SDS011;10495;50.922;4.760;2022-08-11T00:59:46;3.53;;;3.20;;
20671;SDS011;10495;50.922;4.760;2022-08-11T01:02:40;3.20;;;2.90;;
20671;SDS011;10495;50.922;4.760;2022-08-11T01:10:41;3.53;;;2.90;;
20671;SDS011;10495;50.922;4.760;2022-08-11T01:32:55;3.20;;;2.90;;
20671;SDS011;10495;50.922;4.760;2022-08-11T01:51:28;3.20;;;2.90;;
20671;SDS011;10495;50.922;4.760;2022-08-11T01:59:35;3.63;;;3.33;;
20671;SDS011;10495;50.922;4.760;2022-08-11T02:05:56;2.87;;;2.67;;
20671;SDS011;10495;50.922;4.760;2022-08-11T02:16:47;3.53;;;3.23;;
20671;SDS011;10495;50.922;4.760;2022-08-11T02:25:30;5.20;;;3.60;;
20671;SDS011;10495;50.922;4.760;2022-08-11T02:28:22;3.40;;;3.10;;
20671;SDS011;10495;50.922;4.760;2022-08-11T02:34:04;3.47;;;3.10;;
20671;SDS011;10495;50.922;4.760;2022-08-11T02:36:54;4.20;;;3.60;;
20671;SDS011;10495;50.922;4.760;2022-08-11T02:51:19;4.07;;;3.47;;
20671;SDS011;10495;50.922;4.760;2022-08-11T02:54:09;3.53;;;2.93;;
20671;SDS011;10495;50.922;4.760;2022-08-11T03:05:06;3.67;;;3.27;;
20671;SDS011;10495;50.922;4.760;2022-08-11T03:07:46;3.70;;;3.37;;
20671;SDS011;10495;50.922;4.760;2022-08-11T03:10:27;5.13;;;3.30;;
20671;SDS011;10495;50.922;4.760;2022-08-11T03:13:21;6.97;;;3.50;;
20671;SDS011;10495;50.922;4.760;2022-08-11T03:21:45;3.47;;;2.87;;
20671;SDS011;10495;50.922;4.760;2022-08-11T03:24:35;5.60;;;3.93;;
20671;SDS011;10495;50.922;4.760;2022-08-11T03:30:04;3.57;;;3.27;;
20671;SDS011;10495;50.922;4.760;2022-08-11T03:35:43;3.47;;;3.17;;
20671;SDS011;10495;50.922;4.760;2022-08-11T03:38:47;3.53;;;3.07;;
20671;SDS011;10495;50.922;4.760;2022-08-11T03:41:22;3.40;;;2.97;;
20671;SDS011;10495;50.922;4.760;2022-08-11T03:44:17;5.83;;;3.43;;
20671;SDS011;10495;50.922;4.760;2022-08-11T03:49:35;3.27;;;2.97;;
20671;SDS011;10495;50.922;4.760;2022-08-11T05:10:11;3.80;;;3.50;;
20671;SDS011;10495;50.922;4.760;2022-08-11T05:15:19;3.73;;;3.30;;
20671;SDS011;10495;50.922;4.760;2022-08-11T05:18:18;6.20;;;3.70;;
20671;SDS011;10495;50.922;4.760;2022-08-11T05:21:06;6.57;;;3.73;;
20671;SDS011;10495;50.922;4.760;2022-08-11T05:23:56;4.10;;;3.70;;
20671;SDS011;10495;50.922;4.760;2022-08-11T05:26:50;3.97;;;3.57;;
20671;SDS011;10495;50.922;4.760;2022-08-11T05:29:46;4.03;;;3.63;;
20671;SDS011;10495;50.922;4.760;2022-08-11T05:32:37;3.13;;;2.83;;
20671;SDS011;10495;50.922;4.760;2022-08-11T05:35:30;4.50;;;3.40;;
20671;SDS011;10495;50.922;4.760;2022-08-11T05:38:02;3.43;;;3.00;;
20671;SDS011;10495;50.922;4.760;2022-08-11T05:40:53;4.00;;;3.60;;
20671;SDS011;10495;50.922;4.760;2022-08-11T05:43:39;3.40;;;3.07;;
20671;SDS011;10495;50.922;4.760;2022-08-11T05:46:27;7.57;;;4.00;;
20671;SDS011;10495;50.922;4.760;2022-08-11T05:49:12;4.63;;;4.13;;
20671;SDS011;10495;50.922;4.760;2022-08-11T05:51:58;4.77;;;4.27;;
20671;SDS011;10495;50.922;4.760;2022-08-11T05:54:45;4.53;;;3.87;;
20671;SDS011;10495;50.922;4.760;2022-08-11T05:57:30;7.30;;;4.13;;
20671;SDS011;10495;50.922;4.760;2022-08-11T06:00:00;5.22;;;4.47;;
20671;SDS011;10495;50.922;4.760;2022-08-11T06:02:29;4.25;;;3.63;;
20671;SDS011;10495;50.922;4.760;2022-08-11T06:04:55;4.97;;;4.47;;
20671;SDS011;10495;50.922;4.760;2022-08-11T06:07:25;6.07;;;4.70;;
20671;SDS011;10495;50.922;4.760;2022-08-11T06:09:53;7.68;;;4.80;;
20671;SDS011;10495;50.922;4.760;2022-08-11T06:14:54;6.75;;;4.60;;
20671;SDS011;10495;50.922;4.760;2022-08-11T06:17:24;6.63;;;4.57;;
20671;SDS011;10495;50.922;4.760;2022-08-11T06:19:57;6.65;;;4.78;;
20671;SDS011;10495;50.922;4.760;2022-08-11T06:22:25;5.47;;;4.38;;
20671;SDS011;10495;50.922;4.760;2022-08-11T06:24:55;4.82;;;4.32;;
20671;SDS011;10495;50.922;4.760;2022-08-11T06:27:26;7.88;;;4.93;;
20671;SDS011;10495;50.922;4.760;2022-08-11T06:29:57;5.07;;;4.57;;
20671;SDS011;10495;50.922;4.760;2022-08-11T06:32:25;4.97;;;4.47;;
20671;SDS011;10495;50.922;4.760;2022-08-11T06:35:15;7.75;;;4.55;;
20671;SDS011;10495;50.922;4.760;2022-08-11T06:44:26;5.70;;;4.40;;
20671;SDS011;10495;50.922;4.760;2022-08-11T06:47:02;4.75;;;4.28;;
20671;SDS011;10495;50.922;4.760;2022-08-11T06:49:44;7.03;;;4.38;;
20671;SDS011;10495;50.922;4.760;2022-08-11T06:52:30;7.32;;;4.30;;
20671;SDS011;10495;50.922;4.760;2022-08-11T06:55:05;5.90;;;4.60;;
20671;SDS011;10495;50.922;4.760;2022-08-11T06:57:58;9.98;;;4.68;;
20671;SDS011;10495;50.922;4.760;2022-08-11T07:00:45;7.03;;;4.15;;
20671;SDS011;10495;50.922;4.760;2022-08-11T07:03:15;7.93;;;5.22;;
20671;SDS011;10495;50.922;4.760;2022-08-11T07:05:48;6.70;;;4.40;;
20671;SDS011;10495;50.922;4.760;2022-08-11T07:14:13;6.95;;;4.40;;
20671;SDS011;10495;50.922;4.760;2022-08-11T07:17:03;5.43;;;4.57;;
20671;SDS011;10495;50.922;4.760;2022-08-11T07:19:35;4.60;;;4.10;;
20671;SDS011;10495;50.922;4.760;2022-08-11T07:22:21;7.57;;;4.15;;
20671;SDS011;10495;50.922;4.760;2022-08-11T07:25:12;7.53;;;4.03;;
20671;SDS011;10495;50.922;4.760;2022-08-11T07:28:03;6.82;;;4.43;;
20671;SDS011;10495;50.922;4.760;2022-08-11T07:30:52;4.13;;;3.42;;
20671;SDS011;10495;50.922;4.760;2022-08-11T07:33:24;6.15;;;4.40;;
20671;SDS011;10495;50.922;4.760;2022-08-11T07:35:56;6.25;;;4.60;;
20671;SDS011;10495;50.922;4.760;2022-08-11T07:38:26;7.85;;;4.22;;
20671;SDS011;10495;50.922;4.760;2022-08-11T07:41:08;5.55;;;4.07;;
20671;SDS011;10495;50.922;4.760;2022-08-11T07:43:35;8.15;;;4.15;;
20671;SDS011;10495;50.922;4.760;2022-08-11T07:46:02;7.22;;;4.72;;
20671;SDS011;10495;50.922;4.760;2022-08-11T07:48:47;7.20;;;4.80;;
20671;SDS011;10495;50.922;4.760;2022-08-11T07:51:32;6.55;;;3.95;;
20671;SDS011;10495;50.922;4.760;2022-08-11T07:54:17;4.93;;;3.78;;
20671;SDS011;10495;50.922;4.760;2022-08-11T07:56:43;6.50;;;3.95;;
20671;SDS011;10495;50.922;4.760;2022-08-11T07:59:09;7.78;;;4.13;;
20671;SDS011;10495;50.922;4.760;2022-08-11T08:01:55;8.20;;;4.80;;
20671;SDS011;10495;50.922;4.760;2022-08-11T08:04:40;4.35;;;3.95;;
20671;SDS011;10495;50.922;4.760;2022-08-11T08:07:24;8.20;;;5.20;;
20671;SDS011;10495;50.922;4.760;2022-08-11T08:10:09;7.30;;;4.22;;
20671;SDS011;10495;50.922;4.760;2022-08-11T08:12:54;9.75;;;4.57;;
20671;SDS011;10495;50.922;4.760;2022-08-11T08:15:39;8.35;;;4.30;;
20671;SDS011;10495;50.922;4.760;2022-08-11T08:18:24;13.68;;;5.03;;
20671;SDS011;10495;50.922;4.760;2022-08-11T08:20:50;4.78;;;4.25;;
20671;SDS011;10495;50.922;4.760;2022-08-11T08:23:19;3.70;;;3.40;;
20671;SDS011;10495;50.922;4.760;2022-08-11T08:25:57;8.00;;;3.72;;
20671;SDS011;10495;50.922;4.760;2022-08-11T08:28:25;8.70;;;3.92;;
20671;SDS011;10495;50.922;4.760;2022-08-11T08:30:52;5.57;;;4.03;;
20671;SDS011;10495;50.922;4.760;2022-08-11T08:33:24;10.07;;;4.13;;
20671;SDS011;10495;50.922;4.760;2022-08-11T08:36:01;5.30;;;3.85;;
20671;SDS011;10495;50.922;4.760;2022-08-11T08:38:46;4.90;;;4.30;;
20671;SDS011;10495;50.922;4.760;2022-08-11T08:41:14;7.03;;;4.63;;
20671;SDS011;10495;50.922;4.760;2022-08-11T08:43:44;4.88;;;3.47;;
20671;SDS011;10495;50.922;4.760;2022-08-11T08:46:14;4.40;;;3.97;;
20671;SDS011;10495;50.922;4.760;2022-08-11T08:48:48;5.85;;;3.83;;
20671;SDS011;10495;50.922;4.760;2022-08-11T08:51:15;4.25;;;3.50;;
20671;SDS011;10495;50.922;4.760;2022-08-11T08:54:04;4.75;;;4.00;;
20671;SDS011;10495;50.922;4.760;2022-08-11T08:56:32;4.90;;;3.67;;
20671;SDS011;10495;50.922;4.760;2022-08-11T08:59:00;4.65;;;3.95;;
20671;SDS011;10495;50.922;4.760;2022-08-11T09:01:28;6.80;;;3.70;;
20671;SDS011;10495;50.922;4.760;2022-08-11T09:03:55;9.05;;;4.00;;
20671;SDS011;10495;50.922;4.760;2022-08-11T09:06:22;4.57;;;3.30;;
20671;SDS011;10495;50.922;4.760;2022-08-11T09:08:48;6.70;;;3.63;;
20671;SDS011;10495;50.922;4.760;2022-08-11T09:11:14;5.13;;;3.63;;
20671;SDS011;10495;50.922;4.760;2022-08-11T09:13:59;5.72;;;4.25;;
20671;SDS011;10495;50.922;4.760;2022-08-11T09:16:27;5.97;;;3.55;;
20671;SDS011;10495;50.922;4.760;2022-08-11T09:18:52;4.43;;;3.67;;
20671;SDS011;10495;50.922;4.760;2022-08-11T09:21:19;3.85;;;3.35;;
20671;SDS011;10495;50.922;4.760;2022-08-11T09:23:47;5.57;;;4.03;;
20671;SDS011;10495;50.922;4.760;2022-08-11T09:26:32;4.68;;;3.65;;
20671;SDS011;10495;50.922;4.760;2022-08-11T09:29:19;5.38;;;3.60;;
20671;SDS011;10495;50.922;4.760;2022-08-11T09:31:46;4.10;;;3.40;;
20671;SDS011;10495;50.922;4.760;2022-08-11T09:34:13;5.05;;;3.88;;
20671;SDS011;10495;50.922;4.760;2022-08-11T09:36:40;5.63;;;3.60;;
20671;SDS011;10495;50.922;4.760;2022-08-11T09:39:27;8.95;;;3.85;;
20671;SDS011;10495;50.922;4.760;2022-08-11T09:42:12;3.90;;;3.45;;
20671;SDS011;10495;50.922;4.760;2022-08-11T09:44:39;5.40;;;3.72;;
20671;SDS011;10495;50.922;4.760;2022-08-11T09:49:46;4.78;;;3.50;;
20671;SDS011;10495;50.922;4.760;2022-08-11T09:52:13;5.75;;;3.72;;
20671;SDS011;10495;50.922;4.760;2022-08-11T09:54:40;5.75;;;3.60;;
20671;SDS011;10495;50.922;4.760;2022-08-11T09:57:07;6.53;;;3.92;;
20671;SDS011;10495;50.922;4.760;2022-08-11T09:59:51;5.13;;;3.60;;
20671;SDS011;10495;50.922;4.760;2022-08-11T10:02:18;4.60;;;3.50;;
20671;SDS011;10495;50.922;4.760;2022-08-11T10:04:50;5.43;;;4.00;;
20671;SDS011;10495;50.922;4.760;2022-08-11T10:07:18;9.82;;;4.40;;
20671;SDS011;10495;50.922;4.760;2022-08-11T10:12:22;6.78;;;3.95;;
20671;SDS011;10495;50.922;4.760;2022-08-11T10:14:53;6.03;;;4.03;;
20671;SDS011;10495;50.922;4.760;2022-08-11T10:17:42;5.75;;;4.00;;
20671;SDS011;10495;50.922;4.760;2022-08-11T10:20:31;7.22;;;4.03;;
20671;SDS011;10495;50.922;4.760;2022-08-11T10:22:59;4.88;;;3.47;;
20671;SDS011;10495;50.922;4.760;2022-08-11T10:25:45;5.50;;;3.63;;
20671;SDS011;10495;50.922;4.760;2022-08-11T10:28:30;5.70;;;4.05;;
20671;SDS011;10495;50.922;4.760;2022-08-11T10:30:57;5.22;;;3.67;;
20671;SDS011;10495;50.922;4.760;2022-08-11T10:33:42;7.40;;;4.25;;
20671;SDS011;10495;50.922;4.760;2022-08-11T10:36:25;4.45;;;3.90;;
20671;SDS011;10495;50.922;4.760;2022-08-11T10:38:52;4.10;;;3.67;;
20671;SDS011;10495;50.922;4.760;2022-08-11T10:41:19;4.25;;;3.58;;
20671;SDS011;10495;50.922;4.760;2022-08-11T10:44:04;5.55;;;3.92;;
20671;SDS011;10495;50.922;4.760;2022-08-11T10:46:31;7.10;;;3.78;;
20671;SDS011;10495;50.922;4.760;2022-08-11T10:49:15;7.43;;;4.18;;
20671;SDS011;10495;50.922;4.760;2022-08-11T10:51:42;5.70;;;4.25;;
20671;SDS011;10495;50.922;4.760;2022-08-11T10:54:27;5.30;;;3.83;;
20671;SDS011;10495;50.922;4.760;2022-08-11T10:57:13;6.95;;;4.07;;
20671;SDS011;10495;50.922;4.760;2022-08-11T10:59:58;6.10;;;3.53;;
20671;SDS011;10495;50.922;4.760;2022-08-11T11:02:24;6.95;;;3.90;;
20671;SDS011;10495;50.922;4.760;2022-08-11T11:07:37;4.75;;;3.60;;
20671;SDS011;10495;50.922;4.760;2022-08-11T11:10:11;5.03;;;3.35;;
20671;SDS011;10495;50.922;4.760;2022-08-11T11:12:42;4.90;;;3.38;;
20671;SDS011;10495;50.922;4.760;2022-08-11T11:15:33;5.38;;;4.03;;
20671;SDS011;10495;50.922;4.760;2022-08-11T11:18:26;7.32;;;3.75;;
20671;SDS011;10495;50.922;4.760;2022-08-11T11:21:05;7.82;;;3.65;;
20671;SDS011;10495;50.922;4.760;2022-08-11T11:26:26;4.50;;;3.45;;
20671;SDS011;10495;50.922;4.760;2022-08-11T11:29:06;4.22;;;3.50;;
20671;SDS011;10495;50.922;4.760;2022-08-11T11:37:08;6.13;;;3.65;;
20671;SDS011;10495;50.922;4.760;2022-08-11T11:39:37;8.60;;;3.38;;
20671;SDS011;10495;50.922;4.760;2022-08-11T11:42:05;6.25;;;3.40;;
20671;SDS011;10495;50.922;4.760;2022-08-11T11:44:33;3.80;;;3.50;;
20671;SDS011;10495;50.922;4.760;2022-08-11T11:47:00;4.32;;;3.20;;
20671;SDS011;10495;50.922;4.760;2022-08-11T11:49:27;3.70;;;3.03;;
20671;SDS011;10495;50.922;4.760;2022-08-11T11:51:56;3.35;;;3.05;;
20671;SDS011;10495;50.922;4.760;2022-08-11T11:54:24;4.93;;;3.40;;
20671;SDS011;10495;50.922;4.760;2022-08-11T11:56:55;3.65;;;3.35;;
20671;SDS011;10495;50.922;4.760;2022-08-11T11:59:23;4.90;;;3.20;;
20671;SDS011;10495;50.922;4.760;2022-08-11T12:02:21;4.65;;;3.50;;
20671;SDS011;10495;50.922;4.760;2022-08-11T12:04:46;6.07;;;3.03;;
20671;SDS011;10495;50.922;4.760;2022-08-11T12:07:12;3.90;;;3.33;;
20671;SDS011;10495;50.922;4.760;2022-08-11T12:09:58;3.22;;;2.92;;
20671;SDS011;10495;50.922;4.760;2022-08-11T12:12:24;5.97;;;2.67;;
20671;SDS011;10495;50.922;4.760;2022-08-11T12:15:08;3.22;;;2.92;;
20671;SDS011;10495;50.922;4.760;2022-08-11T12:17:35;4.90;;;3.33;;
20671;SDS011;10495;50.922;4.760;2022-08-11T12:20:02;3.75;;;3.30;;
20671;SDS011;10495;50.922;4.760;2022-08-11T12:22:29;3.58;;;3.28;;
20671;SDS011;10495;50.922;4.760;2022-08-11T12:25:14;3.70;;;3.10;;
20671;SDS011;10495;50.922;4.760;2022-08-11T12:28:00;3.80;;;3.20;;
20671;SDS011;10495;50.922;4.760;2022-08-11T12:30:49;3.70;;;3.40;;
20671;SDS011;10495;50.922;4.760;2022-08-11T12:33:19;3.58;;;3.15;;
20671;SDS011;10495;50.922;4.760;2022-08-11T12:35:46;4.78;;;3.33;;
20671;SDS011;10495;50.922;4.760;2022-08-11T12:38:16;3.40;;;3.08;;
20671;SDS011;10495;50.922;4.760;2022-08-11T12:40:44;3.33;;;3.03;;
20671;SDS011;10495;50.922;4.760;2022-08-11T12:43:29;4.13;;;3.72;;
20671;SDS011;10495;50.922;4.760;2022-08-11T12:46:18;5.35;;;3.40;;
20671;SDS011;10495;50.922;4.760;2022-08-11T12:48:48;3.42;;;3.13;;
20671;SDS011;10495;50.922;4.760;2022-08-11T12:51:40;3.10;;;2.80;;
20671;SDS011;10495;50.922;4.760;2022-08-11T12:54:30;3.95;;;3.55;;
20671;SDS011;10495;50.922;4.760;2022-08-11T12:57:03;5.28;;;3.67;;
20671;SDS011;10495;50.922;4.760;2022-08-11T12:59:52;6.10;;;3.65;;
20671;SDS011;10495;50.922;4.760;2022-08-11T13:02:38;4.35;;;3.70;;
20671;SDS011;10495;50.922;4.760;2022-08-11T13:05:23;5.60;;;3.47;;
20671;SDS011;10495;50.922;4.760;2022-08-11T13:07:50;6.43;;;3.40;;
20671;SDS011;10495;50.922;4.760;2022-08-11T13:10:17;4.00;;;3.45;;
20671;SDS011;10495;50.922;4.760;2022-08-11T13:13:04;5.78;;;3.95;;
20671;SDS011;10495;50.922;4.760;2022-08-11T13:15:31;3.92;;;3.63;;
20671;SDS011;10495;50.922;4.760;2022-08-11T13:17:57;4.65;;;3.67;;
20671;SDS011;10495;50.922;4.760;2022-08-11T13:20:24;5.43;;;3.20;;
20671;SDS011;10495;50.922;4.760;2022-08-11T13:22:52;6.32;;;4.45;;
20671;SDS011;10495;50.922;4.760;2022-08-11T13:25:24;4.53;;;3.80;;
20671;SDS011;10495;50.922;4.760;2022-08-11T13:27:51;4.38;;;3.70;;
20671;SDS011;10495;50.922;4.760;2022-08-11T13:30:20;4.60;;;3.50;;
20671;SDS011;10495;50.922;4.760;2022-08-11T13:33:11;5.68;;;4.10;;
20671;SDS011;10495;50.922;4.760;2022-08-11T13:35:40;3.50;;;3.30;;
20671;SDS011;10495;50.922;4.760;2022-08-11T13:38:07;4.03;;;3.55;;
20671;SDS011;10495;50.922;4.760;2022-08-11T13:40:37;4.60;;;4.20;;
20671;SDS011;10495;50.922;4.760;2022-08-11T13:43:04;4.55;;;4.15;;
20671;SDS011;10495;50.922;4.760;2022-08-11T13:45:30;3.92;;;3.63;;
20671;SDS011;10495;50.922;4.760;2022-08-11T13:47:57;8.27;;;4.53;;
20671;SDS011;10495;50.922;4.760;2022-08-11T13:50:25;4.10;;;3.70;;
20671;SDS011;10495;50.922;4.760;2022-08-11T13:53:11;7.13;;;4.22;;
20671;SDS011;10495;50.922;4.760;2022-08-11T13:55:41;4.60;;;4.20;;
20671;SDS011;10495;50.922;4.760;2022-08-11T13:58:10;6.47;;;4.15;;
20671;SDS011;10495;50.922;4.760;2022-08-11T14:00:37;5.55;;;3.90;;
20671;SDS011;10495;50.922;4.760;2022-08-11T14:03:07;7.75;;;4.78;;
20671;SDS011;10495;50.922;4.760;2022-08-11T14:05:39;5.53;;;4.00;;
20671;SDS011;10495;50.922;4.760;2022-08-11T14:08:11;6.20;;;4.18;;
20671;SDS011;10495;50.922;4.760;2022-08-11T14:10:42;5.93;;;4.20;;
20671;SDS011;10495;50.922;4.760;2022-08-11T14:13:12;5.07;;;3.90;;
20671;SDS011;10495;50.922;4.760;2022-08-11T14:16:00;4.93;;;4.43;;
20671;SDS011;10495;50.922;4.760;2022-08-11T14:18:31;6.80;;;4.20;;
20671;SDS011;10495;50.922;4.760;2022-08-11T14:20:58;3.90;;;3.60;;
20671;SDS011;10495;50.922;4.760;2022-08-11T14:23:50;5.90;;;4.30;;
20671;SDS011;10495;50.922;4.760;2022-08-11T14:26:23;4.55;;;3.70;;
20671;SDS011;10495;50.922;4.760;2022-08-11T14:29:07;4.32;;;4.00;;
20671;SDS011;10495;50.922;4.760;2022-08-11T14:31:38;5.22;;;4.38;;
20671;SDS011;10495;50.922;4.760;2022-08-11T14:34:08;5.00;;;3.90;;
20671;SDS011;10495;50.922;4.760;2022-08-11T14:36:42;4.85;;;3.70;;
20671;SDS011;10495;50.922;4.760;2022-08-11T14:39:10;5.65;;;3.90;;
20671;SDS011;10495;50.922;4.760;2022-08-11T14:41:42;4.40;;;3.88;;
20671;SDS011;10495;50.922;4.760;2022-08-11T14:44:49;7.85;;;3.75;;
20671;SDS011;10495;50.922;4.760;2022-08-11T14:47:36;5.97;;;3.95;;
20671;SDS011;10495;50.922;4.760;2022-08-11T14:50:05;6.65;;;3.95;;
20671;SDS011;10495;50.922;4.760;2022-08-11T14:52:32;4.65;;;3.72;;
20671;SDS011;10495;50.922;4.760;2022-08-11T14:54:59;5.95;;;3.72;;
20671;SDS011;10495;50.922;4.760;2022-08-11T14:57:44;3.88;;;3.50;;
20671;SDS011;10495;50.922;4.760;2022-08-11T15:00:12;4.45;;;3.45;;
20671;SDS011;10495;50.922;4.760;2022-08-11T15:02:39;3.60;;;3.30;;
20671;SDS011;10495;50.922;4.760;2022-08-11T15:05:26;6.45;;;3.55;;
20671;SDS011;10495;50.922;4.760;2022-08-11T15:07:54;6.55;;;3.65;;
20671;SDS011;10495;50.922;4.760;2022-08-11T15:10:22;3.47;;;3.17;;
20671;SDS011;10495;50.922;4.760;2022-08-11T15:12:48;4.13;;;3.80;;
20671;SDS011;10495;50.922;4.760;2022-08-11T15:15:15;5.20;;;3.75;;
20671;SDS011;10495;50.922;4.760;2022-08-11T15:18:01;3.83;;;3.47;;
20671;SDS011;10495;50.922;4.760;2022-08-11T15:20:30;5.22;;;3.55;;
20671;SDS011;10495;50.922;4.760;2022-08-11T15:23:15;3.97;;;3.28;;
20671;SDS011;10495;50.922;4.760;2022-08-11T15:26:05;3.90;;;3.60;;
20671;SDS011;10495;50.922;4.760;2022-08-11T15:28:43;6.18;;;3.63;;
20671;SDS011;10495;50.922;4.760;2022-08-11T15:31:30;4.28;;;3.15;;
20671;SDS011;10495;50.922;4.760;2022-08-11T15:34:16;6.05;;;3.30;;
20671;SDS011;10495;50.922;4.760;2022-08-11T15:37:08;6.53;;;3.35;;
20671;SDS011;10495;50.922;4.760;2022-08-11T15:43:24;5.60;;;3.35;;
20671;SDS011;10495;50.922;4.760;2022-08-11T15:46:30;5.38;;;3.40;;
20671;SDS011;10495;50.922;4.760;2022-08-11T15:49:08;3.83;;;3.40;;
20671;SDS011;10495;50.922;4.760;2022-08-11T15:51:40;4.90;;;3.78;;
20671;SDS011;10495;50.922;4.760;2022-08-11T15:54:13;3.83;;;3.42;;
20671;SDS011;10495;50.922;4.760;2022-08-11T15:56:45;6.15;;;4.10;;
20671;SDS011;10495;50.922;4.760;2022-08-11T15:59:15;7.68;;;3.78;;
20671;SDS011;10495;50.922;4.760;2022-08-11T16:02:01;4.03;;;3.20;;
20671;SDS011;10495;50.922;4.760;2022-08-11T16:04:55;4.47;;;3.40;;
20671;SDS011;10495;50.922;4.760;2022-08-11T16:07:23;3.83;;;2.95;;
20671;SDS011;10495;50.922;4.760;2022-08-11T16:10:06;3.70;;;3.08;;
20671;SDS011;10495;50.922;4.760;2022-08-11T16:12:36;3.88;;;3.45;;
20671;SDS011;10495;50.922;4.760;2022-08-11T16:15:03;7.53;;;3.65;;
20671;SDS011;10495;50.922;4.760;2022-08-11T16:17:58;4.03;;;3.22;;
20671;SDS011;10495;50.922;4.760;2022-08-11T16:20:27;5.95;;;3.50;;
20671;SDS011;10495;50.922;4.760;2022-08-11T16:23:03;4.93;;;3.33;;
20671;SDS011;10495;50.922;4.760;2022-08-11T16:25:32;4.32;;;3.58;;
20671;SDS011;10495;50.922;4.760;2022-08-11T16:28:01;4.47;;;3.50;;
20671;SDS011;10495;50.922;4.760;2022-08-11T16:30:29;4.38;;;3.17;;
20671;SDS011;10495;50.922;4.760;2022-08-11T16:32:59;4.75;;;3.70;;
20671;SDS011;10495;50.922;4.760;2022-08-11T16:35:28;6.57;;;4.80;;
20671;SDS011;10495;50.922;4.760;2022-08-11T16:38:14;5.50;;;3.30;;
20671;SDS011;10495;50.922;4.760;2022-08-11T16:41:04;3.55;;;3.25;;
20671;SDS011;10495;50.922;4.760;2022-08-11T16:43:33;3.70;;;3.40;;
20671;SDS011;10495;50.922;4.760;2022-08-11T16:46:22;3.97;;;3.60;;
20671;SDS011;10495;50.922;4.760;2022-08-11T16:49:09;7.57;;;3.88;;
20671;SDS011;10495;50.922;4.760;2022-08-11T16:51:39;6.35;;;3.88;;
20671;SDS011;10495;50.922;4.760;2022-08-11T16:54:05;5.10;;;3.65;;
20671;SDS011;10495;50.922;4.760;2022-08-11T16:59:05;4.93;;;3.88;;
20671;SDS011;10495;50.922;4.760;2022-08-11T17:07:01;9.07;;;5.35;;
20671;SDS011;10495;50.922;4.760;2022-08-11T17:09:46;6.10;;;4.03;;
20671;SDS011;10495;50.922;4.760;2022-08-11T17:12:32;4.22;;;3.63;;
20671;SDS011;10495;50.922;4.760;2022-08-11T17:15:20;9.48;;;4.15;;
20671;SDS011;10495;50.922;4.760;2022-08-11T17:18:06;6.55;;;3.83;;
20671;SDS011;10495;50.922;4.760;2022-08-11T17:20:35;5.22;;;3.63;;
20671;SDS011;10495;50.922;4.760;2022-08-11T17:23:02;5.53;;;4.03;;
20671;SDS011;10495;50.922;4.760;2022-08-11T17:25:48;5.93;;;4.07;;
20671;SDS011;10495;50.922;4.760;2022-08-11T17:28:16;5.30;;;4.00;;
20671;SDS011;10495;50.922;4.760;2022-08-11T17:30:44;6.53;;;3.90;;
20671;SDS011;10495;50.922;4.760;2022-08-11T17:33:29;3.95;;;3.55;;
20671;SDS011;10495;50.922;4.760;2022-08-11T17:36:13;5.93;;;3.90;;
20671;SDS011;10495;50.922;4.760;2022-08-11T17:38:41;11.02;;;4.20;;
20671;SDS011;10495;50.922;4.760;2022-08-11T17:41:08;4.70;;;4.05;;
20671;SDS011;10495;50.922;4.760;2022-08-11T17:43:54;5.22;;;3.92;;
20671;SDS011;10495;50.922;4.760;2022-08-11T17:46:39;8.25;;;4.28;;
20671;SDS011;10495;50.922;4.760;2022-08-11T17:49:24;6.45;;;4.05;;
20671;SDS011;10495;50.922;4.760;2022-08-11T17:51:52;6.38;;;4.20;;
20671;SDS011;10495;50.922;4.760;2022-08-11T17:54:37;5.63;;;4.13;;
20671;SDS011;10495;50.922;4.760;2022-08-11T17:57:23;4.93;;;3.67;;
20671;SDS011;10495;50.922;4.760;2022-08-11T18:00:11;5.72;;;3.75;;
20671;SDS011;10495;50.922;4.760;2022-08-11T18:02:41;6.85;;;4.22;;
20671;SDS011;10495;50.922;4.760;2022-08-11T18:05:27;5.63;;;3.95;;
20671;SDS011;10495;50.922;4.760;2022-08-11T18:07:59;6.03;;;3.85;;
20671;SDS011;10495;50.922;4.760;2022-08-11T18:10:46;4.10;;;3.70;;
20671;SDS011;10495;50.922;4.760;2022-08-11T18:13:33;4.93;;;3.78;;
20671;SDS011;10495;50.922;4.760;2022-08-11T18:16:19;5.05;;;3.95;;
20671;SDS011;10495;50.922;4.760;2022-08-11T18:19:07;4.43;;;4.03;;
20671;SDS011;10495;50.922;4.760;2022-08-11T18:21:53;7.30;;;4.10;;
20671;SDS011;10495;50.922;4.760;2022-08-11T18:24:47;4.30;;;3.95;;
20671;SDS011;10495;50.922;4.760;2022-08-11T18:27:35;4.30;;;3.88;;
20671;SDS011;10495;50.922;4.760;2022-08-11T18:30:23;4.63;;;4.22;;
20671;SDS011;10495;50.922;4.760;2022-08-11T18:33:09;5.95;;;3.92;;
20671;SDS011;10495;50.922;4.760;2022-08-11T18:35:57;4.13;;;3.63;;
20671;SDS011;10495;50.922;4.760;2022-08-11T18:38:43;7.25;;;5.03;;
20671;SDS011;10495;50.922;4.760;2022-08-11T18:41:30;4.15;;;3.75;;
20671;SDS011;10495;50.922;4.760;2022-08-11T18:44:17;6.00;;;3.83;;
20671;SDS011;10495;50.922;4.760;2022-08-11T18:47:04;4.30;;;3.90;;
20671;SDS011;10495;50.922;4.760;2022-08-11T18:49:53;5.28;;;4.30;;
20671;SDS011;10495;50.922;4.760;2022-08-11T18:52:39;4.95;;;4.35;;
20671;SDS011;10495;50.922;4.760;2022-08-11T18:55:26;5.53;;;4.22;;
20671;SDS011;10495;50.922;4.760;2022-08-11T18:58:14;4.68;;;4.18;;
20671;SDS011;10495;50.922;4.760;2022-08-11T19:01:04;4.50;;;4.10;;
20671;SDS011;10495;50.922;4.760;2022-08-11T19:03:50;6.25;;;4.10;;
20671;SDS011;10495;50.922;4.760;2022-08-11T19:06:38;5.43;;;4.05;;
20671;SDS011;10495;50.922;4.760;2022-08-11T19:09:24;4.38;;;3.97;;
20671;SDS011;10495;50.922;4.760;2022-08-11T19:12:11;4.85;;;4.45;;
20671;SDS011;10495;50.922;4.760;2022-08-11T19:14:56;8.48;;;4.50;;
20671;SDS011;10495;50.922;4.760;2022-08-11T19:17:42;4.40;;;4.00;;
20671;SDS011;10495;50.922;4.760;2022-08-11T19:20:29;6.50;;;4.50;;
20671;SDS011;10495;50.922;4.760;2022-08-11T19:23:15;4.82;;;4.43;;
20671;SDS011;10495;50.922;4.760;2022-08-11T19:26:03;5.32;;;4.43;;
20671;SDS011;10495;50.922;4.760;2022-08-11T19:28:51;6.25;;;4.47;;
20671;SDS011;10495;50.922;4.760;2022-08-11T19:31:36;8.00;;;5.10;;
20671;SDS011;10495;50.922;4.760;2022-08-11T19:34:22;5.80;;;4.65;;
20671;SDS011;10495;50.922;4.760;2022-08-11T19:37:08;4.63;;;4.22;;
20671;SDS011;10495;50.922;4.760;2022-08-11T19:39:54;4.65;;;4.25;;
20671;SDS011;10495;50.922;4.760;2022-08-11T19:42:43;4.32;;;3.92;;
20671;SDS011;10495;50.922;4.760;2022-08-11T19:45:28;4.30;;;3.90;;
20671;SDS011;10495;50.922;4.760;2022-08-11T19:48:12;4.45;;;4.05;;